34NY weather

Hendershot Airport
Hilton, New York, United States

Public forecast

Using degrees Fahrenheit for public forecast. Weather courtesy of forecast.io.

METAR (pilot weather report)

Closest report is Greater Rochester International Airport, 12.3 nm (22.8 km) SSE. Retrieved 2019/05/23 11:54 UTC (18 minutes ago):

KROC 231154Z 17005KT 10SM FEW080 BKN140 BKN200 18/12 A3000 RMK AO2 SLP159 ACC DSNT S T01780122 10178 20128 58004

TAF (pilot weather forecast)

Closest forecast is Greater Rochester International Airport, 12.3 nm (22.8 km) SSE. Retrieved 2019/05/23 12:22 UTC (0 seconds ago):

TAF KROC 231120Z 2312/2412 18007KT P6SM FEW250 FM231400 21007KT P6SM BKN120 FM231600 23011G24KT 5SM -TSRA BR BKN050CB FM231800 25020G38KT P6SM -SHRA BKN035 FM232000 26020G30KT P6SM SCT120 FM240300 28010KT P6SM SCT045